Time;durP1;ratioP1;P1;durP2;ratioP2;P2;SDS_P1;SDS_P2;PMS_P1;PMS_P2;Temp;Humidity;BMP_temperature;BMP_pressure;BME280_temperature;BME280_humidity;BME280_pressure;Samples;Min_cycle;Max_cycle;Signal;HPM_P1;HPM_P2
2024/04/02 00:01:01;;;;;;;;;;;;;;;21.69;30.62;98963.91;5072252;28;19916;-81
2024/04/02 00:03:26;;;;;;;;;;;;;;;21.62;30.62;98957.16;5073259;28;19921;-81
2024/04/02 00:05:51;;;;;;;;;;;;;;;21.51;30.77;98950.91;5072005;28;20373;-81
2024/04/02 00:08:16;;;;;;;;;;;;;;;21.50;31.33;98960.06;5073416;28;19912;-81
2024/04/02 00:10:42;;;;;;;;;;;;;;;21.51;31.16;98950.91;5073517;28;19975;-81
2024/04/02 00:13:07;;;;;;;;;;;;;;;21.48;31.17;98944.19;5073462;28;20309;-81
2024/04/02 00:15:32;;;;;;;;;;;;;;;21.49;31.14;98943.13;5071950;28;19916;-81
2024/04/02 00:17:58;;;;;;;;;;;;;;;21.50;31.17;98935.88;5071872;28;19905;-81
2024/04/02 00:20:24;;;;;;;;;;;;;;;21.50;31.14;98933.19;5073447;28;19920;-81
2024/04/02 00:22:49;;;;;;;;;;;;;;;21.41;31.26;98935.59;5073256;28;19916;-81
2024/04/02 00:25:14;;;;;;;;;;;;;;;21.34;31.43;98940.38;5073259;28;20339;-81
2024/04/02 00:27:40;;;;;;;;;;;;;;;21.33;31.60;98944.16;5073156;28;19919;-80
2024/04/02 00:30:05;;;;;;;;;;;;;;;21.33;31.34;98927.22;5072218;28;20370;-79
2024/04/02 00:32:31;;;;;;;;;;;;;;;21.28;31.76;98930.69;5072991;28;19912;-82
2024/04/02 00:34:56;;;;;;;;;;;;;;;21.27;31.37;98923.72;5072989;28;20381;-83
2024/04/02 00:37:21;;;;;;;;;;;;;;;21.27;31.31;98922.91;5071668;28;19963;-81
2024/04/02 00:39:47;;;;;;;;;;;;;;;21.19;31.52;98926.88;5072900;28;19920;-80
2024/04/02 00:42:12;;;;;;;;;;;;;;;21.21;31.41;98924.72;5071593;28;19920;-81
2024/04/02 00:44:37;;;;;;;;;;;;;;;21.20;31.92;98928.47;5071358;28;20384;-81
2024/04/02 00:47:03;;;;;;;;;;;;;;;21.21;31.60;98927.41;5071512;28;20011;-81
2024/04/02 00:49:29;;;;;;;;;;;;;;;21.18;32.25;98928.75;5072696;28;19913;-81
2024/04/02 00:51:55;;;;;;;;;;;;;;;21.22;31.64;98929.88;5072502;28;19995;-81
2024/04/02 00:54:21;;;;;;;;;;;;;;;21.21;31.99;98928.22;5072551;28;20514;-81
2024/04/02 00:56:46;;;;;;;;;;;;;;;21.24;31.73;98929.59;5072523;28;19912;-81
2024/04/02 00:59:11;;;;;;;;;;;;;;;21.29;31.49;98932.31;5072521;28;19919;-81
2024/04/02 01:01:37;;;;;;;;;;;;;;;21.28;32.30;98932.56;5071196;28;19909;-81
2024/04/02 01:04:02;;;;;;;;;;;;;;;21.29;31.56;98928.81;5072243;28;19934;-81
2024/04/02 01:06:28;;;;;;;;;;;;;;;21.31;31.71;98930.16;5072327;28;20018;-81
2024/04/02 01:08:54;;;;;;;;;;;;;;;21.33;31.55;98928.03;5072175;28;20389;-81
2024/04/02 01:11:19;;;;;;;;;;;;;;;21.35;31.56;98925.88;5072420;28;19912;-81
2024/04/02 01:13:46;;;;;;;;;;;;;;;21.34;31.63;98913.53;5071073;28;19917;-81
2024/04/02 01:16:14;;;;;;;;;;;;;;;21.34;31.49;98912.72;5072156;28;19995;-81
2024/04/02 01:18:40;;;;;;;;;;;;;;;21.36;31.48;98919.44;5072397;28;19912;-82
2024/04/02 01:21:05;;;;;;;;;;;;;;;21.37;31.49;98929.13;5072032;28;20004;-81
2024/04/02 01:23:30;;;;;;;;;;;;;;;21.37;31.56;98904.13;5070816;28;19938;-82
2024/04/02 01:25:55;;;;;;;;;;;;;;;21.37;31.61;98915.69;5070551;28;20375;-82
2024/04/02 01:28:21;;;;;;;;;;;;;;;21.37;31.52;98913.00;5071898;28;19916;-81
2024/04/02 01:30:46;;;;;;;;;;;;;;;21.36;31.53;98913.28;5072052;28;20312;-81
2024/04/02 01:33:13;;;;;;;;;;;;;;;21.34;31.29;98908.16;5071940;28;19920;-81
2024/04/02 01:35:38;;;;;;;;;;;;;;;21.35;31.43;98922.41;5071938;28;20329;-81
2024/04/02 01:38:03;;;;;;;;;;;;;;;21.34;31.36;98912.72;5070759;28;19905;-81
2024/04/02 01:40:29;;;;;;;;;;;;;;;21.36;31.48;98905.22;5070325;28;20435;-81
2024/04/02 01:42:54;;;;;;;;;;;;;;;21.37;31.28;98912.19;5070462;28;19912;-81
2024/04/02 01:45:19;;;;;;;;;;;;;;;21.36;31.40;98902.53;5071752;28;19995;-82
2024/04/02 01:47:44;;;;;;;;;;;;;;;21.36;31.36;98895.28;5071712;28;20323;-82
2024/04/02 01:50:10;;;;;;;;;;;;;;;21.35;31.66;98899.03;5070552;28;19912;-81
2024/04/02 01:52:35;;;;;;;;;;;;;;;21.36;31.42;98900.66;5071933;28;19935;-80
2024/04/02 01:55:00;;;;;;;;;;;;;;;21.33;31.39;98901.19;5071861;28;19916;-81
2024/04/02 01:57:25;;;;;;;;;;;;;;;21.23;31.64;98909.19;5071580;28;19916;-81
2024/04/02 01:59:51;;;;;;;;;;;;;;;21.22;31.70;98908.38;5070424;28;20015;-81
2024/04/02 02:02:16;;;;;;;;;;;;;;;21.22;31.72;98900.34;5071715;28;19962;-81
2024/04/02 02:04:41;;;;;;;;;;;;;;;21.19;31.93;98903.50;5071500;28;19924;-81
2024/04/02 02:07:07;;;;;;;;;;;;;;;21.19;31.88;98906.19;5070413;28;19985;-81
2024/04/02 02:09:32;;;;;;;;;;;;;;;21.16;32.02;98906.72;5070596;28;19913;-81
2024/04/02 02:11:57;;;;;;;;;;;;;;;21.13;32.05;98906.44;5071724;28;20308;-81
2024/04/02 02:14:22;;;;;;;;;;;;;;;21.13;32.10;98912.63;5071477;28;19955;-81
2024/04/02 02:16:51;;;;;;;;;;;;;;;21.12;31.92;98911.00;5070299;28;20388;-81
2024/04/02 02:19:16;;;;;;;;;;;;;;;21.10;31.93;98912.34;5071697;28;19966;-81
2024/04/02 02:21:41;;;;;;;;;;;;;;;21.09;32.09;98913.41;5071636;28;19913;-81
2024/04/02 02:24:06;;;;;;;;;;;;;;;21.07;32.17;98916.34;5071492;28;19913;-81
2024/04/02 02:26:32;;;;;;;;;;;;;;;21.07;32.16;98915.53;5071604;28;20415;-81
2024/04/02 02:28:58;;;;;;;;;;;;;;;21.08;31.99;98917.97;5070128;28;19924;-81
2024/04/02 02:31:23;;;;;;;;;;;;;;;21.07;32.27;98924.41;5071252;28;19966;-81
2024/04/02 02:33:48;;;;;;;;;;;;;;;21.08;32.12;98925.22;5071198;28;19916;-81
2024/04/02 02:36:13;;;;;;;;;;;;;;;21.09;32.13;98921.47;5071384;28;20373;-81
2024/04/02 02:38:39;;;;;;;;;;;;;;;21.08;32.29;98923.34;5071275;28;19912;-81
2024/04/02 02:41:04;;;;;;;;;;;;;;;21.03;32.98;98912.56;5071147;28;19917;-81
2024/04/02 02:43:29;;;;;;;;;;;;;;;21.02;32.51;98915.53;5069779;28;19912;-82
2024/04/02 02:45:55;;;;;;;;;;;;;;;20.99;32.52;98924.91;5071181;28;19913;-80
2024/04/02 02:48:20;;;;;;;;;;;;;;;20.99;32.76;98916.03;5071249;28;19916;-81
2024/04/02 02:50:45;;;;;;;;;;;;;;;20.97;32.73;98915.50;5069722;28;19912;-80
2024/04/02 02:53:11;;;;;;;;;;;;;;;20.92;32.85;98922.44;5073631;28;20040;-81
2024/04/02 02:55:36;;;;;;;;;;;;;;;20.90;32.97;98907.69;5074823;28;19916;-81
2024/04/02 02:58:02;;;;;;;;;;;;;;;20.90;32.96;98916.53;5074846;28;19999;-82
2024/04/02 03:00:27;;;;;;;;;;;;;;;20.88;32.87;98910.63;5074785;28;19962;-81
2024/04/02 03:02:52;;;;;;;;;;;;;;;20.84;33.19;98904.16;5074677;28;19973;-81
2024/04/02 03:05:17;;;;;;;;;;;;;;;20.80;33.21;98903.03;5074670;28;19916;-80
2024/04/02 03:07:43;;;;;;;;;;;;;;;20.76;33.53;98899.25;5074596;28;19913;-81
2024/04/02 03:10:08;;;;;;;;;;;;;;;20.75;33.50;98894.16;5073336;28;19999;-81
2024/04/02 03:12:33;;;;;;;;;;;;;;;20.69;34.12;98893.31;5073436;28;19919;-82
2024/04/02 03:14:58;;;;;;;;;;;;;;;20.64;33.71;98879.88;5074512;28;19917;-81
2024/04/02 03:17:24;;;;;;;;;;;;;;;20.60;33.80;98870.72;5073211;28;19920;-80
2024/04/02 03:19:49;;;;;;;;;;;;;;;20.62;33.89;98868.59;5074665;28;19923;-81
2024/04/02 03:22:14;;;;;;;;;;;;;;;20.68;33.00;98858.69;5074063;28;19912;-80
2024/04/02 03:24:39;;;;;;;;;;;;;;;20.59;33.78;98867.25;5074324;28;19912;-81
2024/04/02 03:27:05;;;;;;;;;;;;;;;20.63;33.02;98865.66;5074353;28;19951;-81
2024/04/02 03:29:30;;;;;;;;;;;;;;;20.66;33.21;98858.16;5072968;28;19912;-80
2024/04/02 03:31:56;;;;;;;;;;;;;;;20.64;33.67;98869.16;5074216;28;20385;-82
2024/04/02 03:34:23;;;;;;;;;;;;;;;20.67;33.71;98857.91;5072714;28;19959;-81
2024/04/02 03:36:48;;;;;;;;;;;;;;;20.66;33.47;98856.28;5072884;28;19948;-81
2024/04/02 03:39:13;;;;;;;;;;;;;;;20.68;33.22;98851.47;5074145;28;20423;-81
2024/04/02 03:41:39;;;;;;;;;;;;;;;20.69;33.48;98852.28;5072790;28;19913;-81
2024/04/02 03:44:04;;;;;;;;;;;;;;;20.67;33.24;98847.16;5074017;28;19913;-81
2024/04/02 03:46:29;;;;;;;;;;;;;;;20.69;33.59;98847.72;5073715;28;20006;-81
2024/04/02 03:48:55;;;;;;;;;;;;;;;20.64;33.41;98863.78;5073719;28;19912;-80
2024/04/02 03:51:20;;;;;;;;;;;;;;;20.59;33.83;98861.88;5072740;28;20354;-80
2024/04/02 03:53:45;;;;;;;;;;;;;;;20.62;33.66;98865.91;5073757;28;20435;-81
2024/04/02 03:56:11;;;;;;;;;;;;;;;20.57;33.81;98863.19;5073625;28;20503;-80
2024/04/02 03:58:36;;;;;;;;;;;;;;;20.57;34.02;98880.09;5072262;28;19913;-82
2024/04/02 04:01:04;;;;;;;;;;;;;;;20.51;34.30;98888.38;5072312;28;19999;-80
2024/04/02 04:03:30;;;;;;;;;;;;;;;20.43;34.98;98881.63;5073326;28;19921;-81
2024/04/02 04:06:05;;;;;;;;;;;;;;;20.41;35.02;98882.94;5073543;28;19923;-82
2024/04/02 04:08:31;;;;;;;;;;;;;;;20.41;34.45;98878.38;5073654;28;20376;-80
2024/04/02 04:10:56;;;;;;;;;;;;;;;20.40;34.52;98881.34;5073499;28;20003;-81
2024/04/02 04:13:22;;;;;;;;;;;;;;;20.39;34.97;98880.53;5071978;28;20070;-81
2024/04/02 04:15:54;;;;;;;;;;;;;;;20.40;34.89;98884.81;5073757;28;20498;-81
2024/04/02 04:18:20;;;;;;;;;;;;;;;20.40;35.17;98884.81;5073422;28;20393;-81
2024/04/02 04:20:56;;;;;;;;;;;;;;;20.41;35.03;98883.75;5073264;28;19920;-82
2024/04/02 04:23:21;;;;;;;;;;;;;;;20.43;34.94;98870.09;5073079;28;19913;-81
2024/04/02 04:25:53;;;;;;;;;;;;;;;20.49;34.70;98869.06;5073115;28;20334;-81
2024/04/02 04:28:18;;;;;;;;;;;;;;;20.51;35.17;98866.91;5073191;28;19912;-81
2024/04/02 04:30:50;;;;;;;;;;;;;;;20.59;34.16;98858.38;5072969;28;19912;-81
2024/04/02 04:33:15;;;;;;;;;;;;;;;20.54;34.71;98851.13;5071502;28;19920;-80
2024/04/02 04:35:41;;;;;;;;;;;;;;;20.60;34.58;98857.31;5072941;28;19912;-80
2024/04/02 04:38:06;;;;;;;;;;;;;;;20.56;35.52;98859.72;5072747;28;19913;-80
2024/04/02 04:40:31;;;;;;;;;;;;;;;20.60;35.33;98871.53;5072865;28;19951;-81
2024/04/02 04:42:56;;;;;;;;;;;;;;;20.61;34.52;98869.66;5072767;28;19912;-80
2024/04/02 04:45:22;;;;;;;;;;;;;;;20.59;35.46;98869.91;5072755;28;19920;-81
2024/04/02 04:47:47;;;;;;;;;;;;;;;20.63;35.09;98857.59;5072666;28;19912;-81
2024/04/02 04:50:12;;;;;;;;;;;;;;;20.62;35.90;98858.66;5072809;28;19913;-81
2024/04/02 04:52:37;;;;;;;;;;;;;;;20.68;34.74;98856.81;5072744;28;19912;-81
2024/04/02 04:55:04;;;;;;;;;;;;;;;20.67;35.54;98855.22;5072598;28;20293;-81
2024/04/02 04:57:29;;;;;;;;;;;;;;;20.71;34.97;98855.50;5071474;28;19970;-81
2024/04/02 04:59:54;;;;;;;;;;;;;;;20.68;35.40;98872.91;5072279;28;20389;-81
2024/04/02 05:02:19;;;;;;;;;;;;;;;20.69;35.92;98857.63;5071033;28;19912;-81
2024/04/02 05:04:45;;;;;;;;;;;;;;;20.69;35.56;98877.22;5071045;28;20328;-81
2024/04/02 05:07:20;;;;;;;;;;;;;;;20.69;35.56;98869.16;5072407;28;19917;-80
2024/04/02 05:09:45;;;;;;;;;;;;;;;20.62;36.67;98880.13;5072306;28;20377;-80
2024/04/02 05:12:11;;;;;;;;;;;;;;;20.64;36.18;98879.88;5072132;28;19919;-82
2024/04/02 05:14:36;;;;;;;;;;;;;;;20.68;35.94;98889.00;5071518;28;20388;-80
2024/04/02 05:17:01;;;;;;;;;;;;;;;20.74;35.45;98892.53;5072451;28;19919;-81
2024/04/02 05:19:26;;;;;;;;;;;;;;;20.76;36.26;98899.25;5072151;28;19912;-82
2024/04/02 05:21:52;;;;;;;;;;;;;;;20.78;35.51;98899.00;5070728;28;20358;-81
2024/04/02 05:24:17;;;;;;;;;;;;;;;20.76;36.67;98904.63;5072148;28;20388;-82
2024/04/02 05:26:42;;;;;;;;;;;;;;;20.78;36.42;98902.50;5070895;28;19939;-81
2024/04/02 05:29:08;;;;;;;;;;;;;;;20.83;35.85;98891.81;5072122;28;19913;-81
2024/04/02 05:31:33;;;;;;;;;;;;;;;20.87;36.17;98905.50;5070601;28;19912;-81
2024/04/02 05:33:58;;;;;;;;;;;;;;;20.87;36.86;98892.09;5070690;28;19917;-82
2024/04/02 05:36:24;;;;;;;;;;;;;;;20.96;35.84;98889.72;5072076;28;19912;-80
2024/04/02 05:38:49;;;;;;;;;;;;;;;21.04;35.52;98890.03;5070672;28;20006;-81
2024/04/02 05:41:14;;;;;;;;;;;;;;;21.05;36.07;98883.59;5071999;28;20057;-81
2024/04/02 05:43:40;;;;;;;;;;;;;;;21.04;36.26;98891.91;5071857;28;19913;-81
2024/04/02 05:46:05;;;;;;;;;;;;;;;21.08;36.70;98883.06;5070478;28;20010;-81
2024/04/02 05:48:30;;;;;;;;;;;;;;;21.11;36.36;98885.22;5070562;28;19913;-81
2024/04/02 05:50:56;;;;;;;;;;;;;;;21.17;36.27;98884.19;5070332;28;20300;-81
2024/04/02 05:53:21;;;;;;;;;;;;;;;21.19;36.27;98892.78;5070058;28;19920;-81
2024/04/02 05:55:47;;;;;;;;;;;;;;;21.30;36.06;98896.34;5071665;28;19918;-81
2024/04/02 05:58:12;;;;;;;;;;;;;;;21.34;36.41;98893.94;5071592;28;20385;-81
2024/04/02 06:00:37;;;;;;;;;;;;;;;21.31;37.26;98878.34;5070321;28;19956;-82
2024/04/02 06:03:03;;;;;;;;;;;;;;;21.32;37.55;98883.44;5071285;28;20455;-81
2024/04/02 06:05:28;;;;;;;;;;;;;;;21.37;36.75;98872.72;5070906;28;20003;-80
2024/04/02 06:07:57;;;;;;;;;;;;;;;21.40;38.03;98871.38;5070138;28;19916;-81
2024/04/02 06:10:22;;;;;;;;;;;;;;;21.44;37.74;98869.78;5070181;28;19912;-81
2024/04/02 06:12:47;;;;;;;;;;;;;;;21.41;37.98;98873.00;5070290;28;19920;-81
2024/04/02 06:15:12;;;;;;;;;;;;;;;21.51;37.32;98873.03;5069880;28;20407;-82
2024/04/02 06:17:39;;;;;;;;;;;;;;;21.47;37.88;98877.31;5069840;28;19912;-81
2024/04/02 06:20:04;;;;;;;;;;;;;;;21.51;38.12;98867.66;5069887;28;19912;-81
2024/04/02 06:22:32;;;;;;;;;;;;;;;21.56;38.24;98871.19;5071273;28;19952;-80
2024/04/02 06:24:58;;;;;;;;;;;;;;;21.64;38.19;98877.91;5086611;28;19913;-81
2024/04/02 06:27:23;;;;;;;;;;;;;;;21.64;38.23;98875.22;5088105;28;19916;-82
2024/04/02 06:29:48;;;;;;;;;;;;;;;21.70;37.14;98874.16;5075061;28;19920;-81
2024/04/02 06:32:13;;;;;;;;;;;;;;;21.70;37.49;98867.97;5075185;28;20011;-81
2024/04/02 06:34:38;;;;;;;;;;;;;;;21.69;38.84;98877.94;5075099;28;19917;-82
2024/04/02 06:37:04;;;;;;;;;;;;;;;21.67;39.23;98872.00;5075150;28;19920;-81
2024/04/02 06:39:29;;;;;;;;;;;;;;;21.69;38.62;98874.44;5074985;28;19948;-82
2024/04/02 06:41:54;;;;;;;;;;;;;;;21.77;37.94;98868.53;5074725;28;19916;-82
2024/04/02 06:44:19;;;;;;;;;;;;;;;21.82;38.70;98879.28;5074594;28;19913;-81
2024/04/02 06:46:45;;;;;;;;;;;;;;;21.73;39.85;98859.38;5074915;28;19966;-82
2024/04/02 06:49:10;;;;;;;;;;;;;;;21.82;38.49;98855.09;5075061;28;19985;-81
2024/04/02 06:51:36;;;;;;;;;;;;;;;21.91;37.86;98856.19;5074840;28;20377;-80
2024/04/02 06:54:02;;;;;;;;;;;;;;;21.89;38.41;98875.25;5074597;28;19917;-82
2024/04/02 06:56:27;;;;;;;;;;;;;;;21.93;38.95;98869.34;5073711;28;19920;-81
2024/04/02 06:58:55;;;;;;;;;;;;;;;22.00;39.66;98870.69;5074642;28;19917;-80
2024/04/02 07:01:21;;;;;;;;;;;;;;;22.02;38.38;98855.09;5073322;28;19977;-81
2024/04/02 07:03:46;;;;;;;;;;;;;;;22.03;39.27;98858.63;5073654;28;20404;-82
2024/04/02 07:06:12;;;;;;;;;;;;;;;22.10;38.51;98859.97;5074071;28;19917;-81
2024/04/02 07:08:37;;;;;;;;;;;;;;;22.13;38.72;98856.72;5074284;28;19966;-82
2024/04/02 07:11:04;;;;;;;;;;;;;;;22.14;38.66;98857.53;5074420;28;19966;-82
2024/04/02 07:13:33;;;;;;;;;;;;;;;22.27;38.73;98856.19;5074243;28;19916;-80
2024/04/02 07:15:59;;;;;;;;;;;;;;;22.25;38.84;98859.16;5074049;28;20045;-82
2024/04/02 07:18:24;;;;;;;;;;;;;;;22.30;40.16;98852.97;5073588;28;19948;-82
2024/04/02 07:20:59;;;;;;;;;;;;;;;22.39;39.15;98860.22;5072841;28;19923;-82
2024/04/02 07:23:24;;;;;;;;;;;;;;;22.47;38.85;98859.69;5072796;28;20019;-82
2024/04/02 07:25:50;;;;;;;;;;;;;;;22.48;39.75;98852.41;5073291;28;20041;-81
2024/04/02 07:28:15;;;;;;;;;;;;;;;22.52;39.50;98848.09;5074137;28;19920;-80
2024/04/02 07:30:40;;;;;;;;;;;;;;;22.64;38.95;98853.19;5074190;28;19916;-80
2024/04/02 07:33:05;;;;;;;;;;;;;;;22.76;38.43;98865.25;5073842;28;19912;-81
2024/04/02 07:35:31;;;;;;;;;;;;;;;22.78;38.55;98852.31;5072414;28;20062;-82
2024/04/02 07:37:56;;;;;;;;;;;;;;;22.81;38.62;98857.19;5072130;28;20373;-81
2024/04/02 07:40:21;;;;;;;;;;;;;;;22.87;38.70;98855.28;5072509;28;19912;-82
2024/04/02 07:42:46;;;;;;;;;;;;;;;22.90;38.91;98854.72;5073561;28;20404;-82
2024/04/02 07:45:15;;;;;;;;;;;;;;;23.00;38.40;98856.59;5071747;28;19916;-81
2024/04/02 07:47:41;;;;;;;;;;;;;;;23.10;39.01;98854.69;5071684;28;20308;-81
2024/04/02 07:50:06;;;;;;;;;;;;;;;23.11;38.99;98858.97;5070916;28;19917;-81
2024/04/02 07:52:31;;;;;;;;;;;;;;;23.21;38.46;98847.34;5073223;28;19959;-82
2024/04/02 07:54:56;;;;;;;;;;;;;;;23.26;38.66;98860.00;5068403;28;19921;-81
2024/04/02 07:57:22;;;;;;;;;;;;;;;23.25;38.32;98843.03;5070863;28;19923;-80
2024/04/02 07:59:47;;;;;;;;;;;;;;;23.29;38.26;98846.78;5072912;28;20409;-81
2024/04/02 08:02:12;;;;;;;;;;;;;;;23.31;38.09;98843.81;5072302;28;19916;-81
2024/04/02 08:04:37;;;;;;;;;;;;;;;23.40;37.79;98842.94;5073439;28;19920;-81
2024/04/02 08:07:03;;;;;;;;;;;;;;;23.52;37.56;98844.47;5073328;28;20334;-80
2024/04/02 08:09:28;;;;;;;;;;;;;;;23.57;37.36;98847.97;5071897;28;19919;-82
2024/04/02 08:11:53;;;;;;;;;;;;;;;23.62;37.05;98836.34;5089443;28;19939;-82
2024/04/02 08:14:22;;;;;;;;;;;;;;;23.84;36.58;98841.34;5073110;28;19942;-81
2024/04/02 08:16:47;;;;;;;;;;;;;;;23.90;36.50;98834.81;5068656;28;19982;-81
2024/04/02 08:19:13;;;;;;;;;;;;;;;23.95;36.07;98830.19;5058308;28;20385;-80
2024/04/02 08:21:39;;;;;;;;;;;;;;;24.03;36.04;98826.88;5071874;28;19964;-80
2024/04/02 08:24:04;;;;;;;;;;;;;;;24.13;36.30;98828.69;5068011;28;20010;-82
2024/04/02 08:26:29;;;;;;;;;;;;;;;24.25;36.24;98836.41;5072811;28;19919;-79
2024/04/02 08:28:54;;;;;;;;;;;;;;;24.35;35.88;98825.53;5072673;28;19909;-81
2024/04/02 08:31:20;;;;;;;;;;;;;;;24.53;35.73;98815.94;5071653;28;19912;-81
2024/04/02 08:33:45;;;;;;;;;;;;;;;24.70;35.03;98821.66;5071333;28;19927;-81
2024/04/02 08:36:10;;;;;;;;;;;;;;;24.80;34.61;98831.53;5069712;28;19916;-80
2024/04/02 08:38:36;;;;;;;;;;;;;;;24.76;34.07;98817.00;5067658;28;19920;-79
2024/04/02 08:41:05;;;;;;;;;;;;;;;24.80;34.18;98809.94;5082389;28;19974;-81
2024/04/02 08:43:31;;;;;;;;;;;;;;;24.85;34.51;98799.88;5064656;28;20021;-79
2024/04/02 08:45:59;;;;;;;;;;;;;;;24.91;34.43;98801.44;5069824;28;20042;-80
2024/04/02 08:48:25;;;;;;;;;;;;;;;24.94;34.48;98790.03;5066601;28;19916;-80
2024/04/02 08:50:51;;;;;;;;;;;;;;;24.95;34.06;98780.03;5052817;28;20408;-80
2024/04/02 08:53:16;;;;;;;;;;;;;;;24.99;34.34;98783.81;5052869;28;19984;-81
2024/04/02 08:55:42;;;;;;;;;;;;;;;25.15;34.13;98773.59;5051126;28;20333;-80
2024/04/02 08:58:07;;;;;;;;;;;;;;;25.36;34.12;98757.91;5052399;28;19920;-79
2024/04/02 09:00:33;;;;;;;;;;;;;;;25.61;33.93;98760.22;5056366;28;20384;-79
2024/04/02 09:02:59;;;;;;;;;;;;;;;25.87;33.38;98749.78;5070468;28;19954;-80
2024/04/02 09:05:24;;;;;;;;;;;;;;;25.84;33.46;98753.09;5070109;28;19920;-79
2024/04/02 09:07:50;;;;;;;;;;;;;;;25.75;33.12;98744.84;5069446;28;19960;-79
2024/04/02 09:10:15;;;;;;;;;;;;;;;25.60;33.38;98745.88;5072223;28;19928;-79
2024/04/02 09:12:40;;;;;;;;;;;;;;;25.45;33.38;98750.72;5072088;28;19919;-81
2024/04/02 09:15:07;;;;;;;;;;;;;;;25.40;33.41;98746.22;5071845;28;19967;-81
2024/04/02 09:17:32;;;;;;;;;;;;;;;25.41;33.66;98757.81;5071056;28;19919;-81
2024/04/02 09:19:57;;;;;;;;;;;;;;;25.34;33.43;98750.09;5070829;28;19920;-81
2024/04/02 09:22:23;;;;;;;;;;;;;;;25.47;33.47;98737.72;5071842;28;19913;-79
2024/04/02 09:24:48;;;;;;;;;;;;;;;25.61;33.04;98739.38;5071878;28;20403;-81
2024/04/02 09:27:14;;;;;;;;;;;;;;;25.67;32.98;98742.81;5072089;28;19919;-79
2024/04/02 09:29:39;;;;;;;;;;;;;;;25.91;32.64;98735.38;5070576;28;20011;-79
2024/04/02 09:32:07;;;;;;;;;;;;;;;26.09;32.30;98733.72;5071910;28;20396;-80
2024/04/02 09:34:34;;;;;;;;;;;;;;;26.19;32.36;98730.81;5068456;28;19916;-80
2024/04/02 09:37:03;;;;;;;;;;;;;;;26.41;31.75;98724.72;5069403;28;20425;-79
2024/04/02 09:39:29;;;;;;;;;;;;;;;26.58;31.86;98722.22;5070497;28;19965;-80
2024/04/02 09:41:55;;;;;;;;;;;;;;;26.76;31.79;98725.13;5070137;28;19995;-80
2024/04/02 09:44:24;;;;;;;;;;;;;;;26.99;31.26;98732.22;5069196;28;20440;-80
2024/04/02 09:46:50;;;;;;;;;;;;;;;27.30;30.63;98718.75;5069255;28;19966;-80
2024/04/02 09:49:15;;;;;;;;;;;;;;;27.52;30.34;98720.69;5071517;28;19916;-80
2024/04/02 09:51:41;;;;;;;;;;;;;;;27.72;30.25;98716.69;5071726;28;19939;-80
2024/04/02 09:54:06;;;;;;;;;;;;;;;27.85;29.61;98716.59;5062188;28;20309;-81
2024/04/02 09:56:35;;;;;;;;;;;;;;;27.86;29.72;98709.25;5070425;28;19920;-80
2024/04/02 09:59:04;;;;;;;;;;;;;;;27.90;29.41;98698.59;5070834;28;19913;-80
2024/04/02 10:01:32;;;;;;;;;;;;;;;28.09;29.19;98699.16;5067219;28;19912;-79
2024/04/02 10:04:00;;;;;;;;;;;;;;;28.22;29.13;98690.09;5069007;28;20448;-81
2024/04/02 10:06:25;;;;;;;;;;;;;;;28.31;29.24;98685.56;5068908;28;20312;-80
2024/04/02 10:08:58;;;;;;;;;;;;;;;28.39;28.54;98692.13;5070406;28;19931;-80
2024/04/02 10:11:30;;;;;;;;;;;;;;;28.47;28.82;98683.19;5069810;28;20004;-79
2024/04/02 10:14:00;;;;;;;;;;;;;;;28.59;28.77;98688.00;5071383;28;20033;-80
2024/04/02 10:16:29;;;;;;;;;;;;;;;28.64;27.44;98696.00;5071081;28;19963;-80
2024/04/02 10:18:59;;;;;;;;;;;;;;;28.52;28.02;98682.25;5071044;28;19916;-80
2024/04/02 10:21:27;;;;;;;;;;;;;;;28.68;27.24;98678.75;5070951;28;19923;-81
2024/04/02 10:23:53;;;;;;;;;;;;;;;28.70;26.84;98681.94;5069797;28;20388;-81
2024/04/02 10:26:19;;;;;;;;;;;;;;;28.74;27.51;98674.75;5070818;28;19912;-79
2024/04/02 10:28:44;;;;;;;;;;;;;;;28.73;26.79;98673.16;5064736;28;19923;-80
2024/04/02 10:31:13;;;;;;;;;;;;;;;28.92;27.59;98664.72;5070740;28;20282;-81
2024/04/02 10:33:39;;;;;;;;;;;;;;;29.10;27.40;98668.25;5068873;28;20722;-80
2024/04/02 10:36:05;;;;;;;;;;;;;;;28.92;26.85;98664.72;5071464;28;19919;-81
2024/04/02 10:38:30;;;;;;;;;;;;;;;28.72;26.99;98665.31;5070069;28;20007;-81
2024/04/02 10:40:56;;;;;;;;;;;;;;;28.59;27.54;98669.00;5071081;28;19913;-80
2024/04/02 10:43:21;;;;;;;;;;;;;;;28.50;27.79;98662.75;5070867;28;19912;-81
2024/04/02 10:45:51;;;;;;;;;;;;;;;28.37;28.00;98662.56;5069591;28;19913;-80
2024/04/02 10:48:16;;;;;;;;;;;;;;;28.27;28.10;98662.06;5065705;28;19980;-79
2024/04/02 10:50:41;;;;;;;;;;;;;;;28.33;28.50;98647.22;5069219;28;20347;-80
2024/04/02 10:53:09;;;;;;;;;;;;;;;28.39;28.45;98657.63;5070278;28;19922;-81
2024/04/02 10:55:35;;;;;;;;;;;;;;;28.37;29.04;98649.00;5069945;28;19920;-81
2024/04/02 10:58:00;;;;;;;;;;;;;;;28.44;28.23;98653.94;5069561;28;20007;-81
2024/04/02 11:00:25;;;;;;;;;;;;;;;28.39;28.51;98657.63;5069341;28;19975;-80
2024/04/02 11:02:52;;;;;;;;;;;;;;;28.54;28.68;98650.13;5073201;28;19927;-81
2024/04/02 11:05:17;;;;;;;;;;;;;;;28.67;28.26;98654.63;5071675;28;19924;-81
2024/04/02 11:07:44;;;;;;;;;;;;;;;28.92;28.17;98647.63;5070393;28;19921;-81
2024/04/02 11:10:09;;;;;;;;;;;;;;;29.19;27.67;98641.88;5069560;28;19991;-80
2024/04/02 11:12:35;;;;;;;;;;;;;;;29.47;27.70;98642.31;5060788;28;20063;-80
2024/04/02 11:15:00;;;;;;;;;;;;;;;29.61;27.08;98650.28;5068170;28;19990;-80
2024/04/02 11:17:25;;;;;;;;;;;;;;;29.72;26.74;98638.72;5068148;28;20449;-80
2024/04/02 11:19:51;;;;;;;;;;;;;;;29.53;26.07;98659.25;5089105;28;19919;-80
2024/04/02 11:25:08;;;;;;;;;;;;;;;28.99;27.12;98637.09;5067314;28;20300;-81
2024/04/02 11:27:33;;;;;;;;;;;;;;;29.04;26.53;98650.53;5073760;28;19924;-81
2024/04/02 11:29:59;;;;;;;;;;;;;;;29.22;26.71;98654.03;5084392;28;19917;-81
2024/04/02 11:32:25;;;;;;;;;;;;;;;29.07;26.85;98644.44;5070771;28;19920;-80
2024/04/02 11:35:04;;;;;;;;;;;;;;;29.03;27.44;98636.13;5072679;28;19924;-81
2024/04/02 11:37:30;;;;;;;;;;;;;;;29.01;27.27;98627.50;5067925;28;19969;-81
2024/04/02 11:39:55;;;;;;;;;;;;;;;29.28;27.15;98617.38;5082213;28;20350;-80
2024/04/02 11:42:21;;;;;;;;;;;;;;;29.19;27.08;98624.75;5071007;28;19916;-81
2024/04/02 11:44:47;;;;;;;;;;;;;;;29.08;27.15;98635.16;5071008;28;20015;-80
2024/04/02 11:47:13;;;;;;;;;;;;;;;29.26;26.95;98630.50;5069822;28;20385;-82
2024/04/02 11:49:39;;;;;;;;;;;;;;;29.34;26.81;98622.31;5084099;28;19923;-81
2024/04/02 11:52:04;;;;;;;;;;;;;;;29.57;25.57;98619.41;5062625;28;19917;-80
2024/04/02 11:54:29;;;;;;;;;;;;;;;29.38;26.28;98623.28;5072734;28;20384;-80
2024/04/02 12:02:22;;;;;;;;;;;;;;;29.36;26.50;98630.94;5060636;28;19923;-81
2024/04/02 12:04:50;;;;;;;;;;;;;;;29.01;27.00;98630.22;5069599;28;20477;-80
2024/04/02 12:07:15;;;;;;;;;;;;;;;28.67;27.65;98628.25;5070852;28;19923;-81
2024/04/02 12:09:40;;;;;;;;;;;;;;;28.57;27.69;98619.63;5072767;28;19916;-81
2024/04/02 12:12:06;;;;;;;;;;;;;;;28.75;27.68;98622.03;5073319;28;20374;-80
2024/04/02 12:14:31;;;;;;;;;;;;;;;28.95;27.52;98615.16;5072187;28;19916;-81
2024/04/02 12:16:57;;;;;;;;;;;;;;;28.89;27.57;98611.00;5061544;28;19970;-82
2024/04/02 12:19:22;;;;;;;;;;;;;;;28.83;27.62;98606.03;5071456;28;19960;-81
2024/04/02 12:21:47;;;;;;;;;;;;;;;28.81;28.31;98609.06;5070495;28;19916;-81
2024/04/02 12:24:13;;;;;;;;;;;;;;;28.67;28.08;98601.09;5069072;28;19923;-80
2024/04/02 12:26:38;;;;;;;;;;;;;;;28.61;28.41;98588.00;5072790;28;20438;-81
2024/04/02 12:29:03;;;;;;;;;;;;;;;28.54;28.04;98593.09;5053343;28;19916;-80
2024/04/02 12:31:28;;;;;;;;;;;;;;;28.64;27.38;98593.59;5068482;28;20000;-80
2024/04/02 12:33:54;;;;;;;;;;;;;;;28.81;26.96;98587.34;5067352;28;20312;-80
2024/04/02 12:36:19;;;;;;;;;;;;;;;28.87;26.94;98588.00;5069831;28;19921;-81
2024/04/02 12:38:45;;;;;;;;;;;;;;;28.88;27.66;98582.25;5062932;28;19917;-79
2024/04/02 12:41:10;;;;;;;;;;;;;;;28.77;26.46;98584.47;5069771;28;19913;-81
2024/04/02 12:43:35;;;;;;;;;;;;;;;28.68;26.86;98588.31;5069035;28;19913;-81
2024/04/02 12:46:00;;;;;;;;;;;;;;;28.64;27.80;98582.72;5070893;28;19912;-79
2024/04/02 12:48:26;;;;;;;;;;;;;;;28.64;27.56;98569.13;5071652;28;19916;-81